Time;durP1;ratioP1;P1;durP2;ratioP2;P2;SDS_P1;SDS_P2;PMS_P1;PMS_P2;Temp;Humidity;BMP_temperature;BMP_pressure;BME280_temperature;BME280_humidity;BME280_pressure;Samples;Min_cycle;Max_cycle;Signal;HPM_P1;HPM_P2
2022/09/19 00:01:07;;;;;;;11.70;2.50;;;;;;;11.28;70.12;101737.53;6304510;22;20011;-59
2022/09/19 00:03:32;;;;;;;7.72;2.20;;;;;;;11.26;69.93;101737.75;6305782;22;20057;-59
2022/09/19 00:05:57;;;;;;;9.73;2.17;;;;;;;11.27;69.79;101731.09;6304541;22;20053;-58
2022/09/19 00:08:22;;;;;;;9.07;2.53;;;;;;;11.29;69.71;101734.50;6306097;22;19999;-58
2022/09/19 00:10:48;;;;;;;8.93;2.13;;;;;;;11.29;69.87;101733.66;6305370;22;20010;-58
2022/09/19 00:13:13;;;;;;;6.97;2.50;;;;;;;11.27;69.80;101733.03;6303997;22;20023;-58
2022/09/19 00:15:47;;;;;;;11.88;2.38;;;;;;;11.25;70.00;101741.63;6306392;22;20027;-58
2022/09/19 00:18:12;;;;;;;8.15;2.53;;;;;;;11.26;69.97;101737.75;6305751;22;20017;-58
2022/09/19 00:20:43;;;;;;;11.88;2.92;;;;;;;11.24;69.98;101742.72;6302635;22;20427;-58
2022/09/19 00:26:02;;;;;;;10.32;2.42;;;;;;;11.21;70.06;101736.78;6305145;22;20089;-57
2022/09/19 00:28:29;;;;;;;6.30;2.00;;;;;;;11.14;69.75;101734.06;6305092;22;20018;-58
2022/09/19 00:30:55;;;;;;;15.82;2.88;;;;;;;11.15;69.88;101743.25;6305267;22;20010;-58
2022/09/19 00:33:23;;;;;;;11.75;2.25;;;;;;;11.13;69.55;101729.63;6304136;22;20015;-58
2022/09/19 00:35:54;;;;;;;10.75;1.80;;;;;;;11.12;69.67;101743.72;6304659;22;20007;-57
2022/09/19 00:38:22;;;;;;;12.75;2.80;;;;;;;11.12;69.56;101743.72;6305208;22;20505;-58
2022/09/19 00:40:48;;;;;;;9.63;2.20;;;;;;;11.09;69.55;101747.00;6303891;22;20086;-58
2022/09/19 00:43:16;;;;;;;9.60;2.00;;;;;;;11.06;69.72;101749.13;6305610;22;20004;-58
2022/09/19 00:45:41;;;;;;;8.95;2.20;;;;;;;11.09;69.65;101747.00;6304887;22;20038;-58
2022/09/19 00:48:10;;;;;;;10.20;2.30;;;;;;;11.09;69.58;101742.28;6304258;22;20069;-58
2022/09/19 00:50:37;;;;;;;7.75;1.77;;;;;;;11.05;69.77;101738.28;6305759;22;20003;-58
2022/09/19 00:53:11;;;;;;;6.78;1.77;;;;;;;11.07;69.72;101741.66;6305089;22;20007;-58
2022/09/19 00:55:37;;;;;;;12.88;2.53;;;;;;;11.06;69.64;101740.81;6305039;22;20019;-58
2022/09/19 00:58:19;;;;;;;11.13;1.98;;;;;;;11.11;69.82;101744.81;6304935;22;20018;-58
2022/09/19 01:00:45;;;;;;;12.45;2.38;;;;;;;11.12;69.55;101752.06;6304594;22;19999;-58
2022/09/19 01:03:11;;;;;;;13.18;2.58;;;;;;;11.07;69.57;101748.06;6304439;22;20015;-58
2022/09/19 01:05:59;;;;;;;10.45;2.03;;;;;;;11.09;69.89;101744.22;6304662;22;20416;-58
2022/09/19 01:08:55;;;;;;;8.77;2.42;;;;;;;11.10;69.81;101741.19;6304410;22;20003;-58
2022/09/19 01:11:42;;;;;;;7.15;1.92;;;;;;;11.08;69.68;101743.34;6305239;22;20033;-58
2022/09/19 01:14:37;;;;;;;8.27;2.35;;;;;;;11.09;69.78;101741.44;6304867;22;20010;-58
2022/09/19 01:17:09;;;;;;;8.70;2.22;;;;;;;11.02;69.74;101753.47;6305438;22;20011;-58
2022/09/19 01:19:58;;;;;;;9.82;1.85;;;;;;;11.08;69.90;101746.13;6303853;22;20011;-58
2022/09/19 01:22:37;;;;;;;10.65;2.05;;;;;;;11.05;69.48;101754.94;6304029;22;20420;-58
2022/09/19 01:25:33;;;;;;;9.15;2.45;;;;;;;11.06;69.83;101759.41;6305870;22;20078;-59
2022/09/19 01:28:13;;;;;;;12.70;2.50;;;;;;;11.02;69.66;101767.38;6304827;22;20007;-58
2022/09/19 01:31:16;;;;;;;9.65;2.08;;;;;;;10.98;69.49;101768.06;6303487;22;20003;-58
2022/09/19 01:33:39;;;;;;;7.97;2.22;;;;;;;10.95;69.67;101766.59;6304356;22;20450;-58
2022/09/19 01:36:08;;;;;;;7.10;1.77;;;;;;;10.92;69.37;101767.06;6304922;22;20086;-59
2022/09/19 01:38:37;;;;;;;12.35;1.73;;;;;;;10.89;69.34;101764.75;6304662;22;20030;-58
2022/09/19 01:41:04;;;;;;;9.30;2.47;;;;;;;10.89;69.74;101762.00;6305149;22;20031;-58
2022/09/19 01:43:30;;;;;;;7.78;2.00;;;;;;;10.89;69.95;101764.75;6302936;22;20011;-58
2022/09/19 01:46:01;;;;;;;10.90;2.28;;;;;;;10.87;69.57;101768.84;6305299;22;20000;-59
2022/09/19 01:48:32;;;;;;;6.80;1.90;;;;;;;10.89;69.87;101767.53;6304593;22;20450;-59
2022/09/19 01:51:29;;;;;;;10.63;2.38;;;;;;;10.91;69.88;101765.38;6303465;22;20408;-58
2022/09/19 01:54:27;;;;;;;8.07;2.00;;;;;;;10.96;69.81;101771.06;6304163;22;20450;-59
2022/09/19 01:57:13;;;;;;;10.45;2.40;;;;;;;10.93;70.26;101779.03;6270897;22;20008;-58
2022/09/19 01:59:45;;;;;;;8.68;2.03;;;;;;;10.84;70.20;101772.94;6304416;22;20335;-59
2022/09/19 02:02:22;;;;;;;9.05;1.98;;;;;;;10.84;70.32;101775.69;6304784;22;20014;-58
2022/09/19 02:05:18;;;;;;;7.60;1.98;;;;;;;10.84;70.31;101772.09;6303992;22;20398;-58
2022/09/19 02:07:59;;;;;;;10.35;1.63;;;;;;;10.84;70.13;101770.16;6299680;22;20018;-58
2022/09/19 02:10:30;;;;;;;10.98;2.10;;;;;;;10.78;70.23;101768.31;6304628;22;20415;-59
2022/09/19 02:13:00;;;;;;;7.85;1.95;;;;;;;10.80;70.23;101768.91;6305882;22;20007;-58
2022/09/19 02:15:29;;;;;;;9.27;2.00;;;;;;;10.81;70.49;101765.09;6306235;22;20046;-59
2022/09/19 02:18:01;;;;;;;9.38;2.10;;;;;;;10.78;70.55;101769.16;6305493;22;20035;-59
2022/09/19 02:20:31;;;;;;;11.48;2.08;;;;;;;10.79;70.08;101770.84;6306607;22;20003;-58
2022/09/19 02:23:20;;;;;;;8.90;2.00;;;;;;;10.79;70.31;101779.19;6306413;22;20000;-58
2022/09/19 02:25:47;;;;;;;7.90;1.98;;;;;;;10.73;70.37;101773.72;6305936;22;20056;-58
2022/09/19 02:28:18;;;;;;;12.25;2.00;;;;;;;10.73;70.43;101788.47;6307235;22;20087;-58
2022/09/19 02:30:44;;;;;;;11.30;2.25;;;;;;;10.73;70.40;101793.16;6306691;22;20010;-58
2022/09/19 02:33:11;;;;;;;10.07;2.63;;;;;;;10.74;70.53;101781.81;6305624;22;20089;-58
2022/09/19 02:35:50;;;;;;;8.40;1.80;;;;;;;10.74;70.68;101789.31;6306648;22;20015;-56
2022/09/19 02:38:31;;;;;;;9.50;2.13;;;;;;;10.76;70.28;101790.75;6306390;22;20018;-55
2022/09/19 02:41:04;;;;;;;11.73;1.83;;;;;;;10.72;70.70;101788.66;6305534;22;20003;-57
2022/09/19 02:43:40;;;;;;;12.25;2.15;;;;;;;10.71;70.48;101793.38;6306375;22;20031;-57
2022/09/19 02:46:10;;;;;;;10.70;2.00;;;;;;;10.69;70.28;101797.47;6305434;22;20313;-57
2022/09/19 02:48:41;;;;;;;10.20;2.53;;;;;;;10.69;70.42;101801.09;6305800;22;20011;-57
2022/09/19 02:51:12;;;;;;;8.15;1.90;;;;;;;10.69;70.34;101798.34;6306205;22;20042;-57
2022/09/19 02:53:42;;;;;;;10.73;2.03;;;;;;;10.68;70.23;101793.00;6303567;22;20007;-57
2022/09/19 02:56:11;;;;;;;7.38;2.22;;;;;;;10.65;70.23;101791.53;6307310;22;20011;-57
2022/09/19 02:58:43;;;;;;;11.27;2.30;;;;;;;10.65;70.54;101797.09;6306127;22;20072;-57
2022/09/19 03:01:16;;;;;;;11.18;2.08;;;;;;;10.66;70.58;101798.78;6305367;22;20057;-57
2022/09/19 03:06:37;;;;;;;9.00;1.80;;;;;;;10.67;70.74;101796.84;6306494;22;20038;-57
2022/09/19 03:09:04;;;;;;;10.43;1.75;;;;;;;10.65;70.34;101797.09;6305752;22;20082;-58
2022/09/19 03:11:32;;;;;;;13.13;2.58;;;;;;;10.64;70.48;101803.72;6306457;22;20027;-57
2022/09/19 03:13:59;;;;;;;7.55;2.05;;;;;;;10.65;70.06;101794.31;6305637;22;19999;-57
2022/09/19 03:16:34;;;;;;;9.15;2.05;;;;;;;10.61;70.20;101797.75;6305193;22;20011;-57
2022/09/19 03:19:02;;;;;;;8.68;2.05;;;;;;;10.59;70.17;101791.59;6305338;22;20003;-57
2022/09/19 03:21:28;;;;;;;5.18;1.88;;;;;;;10.57;70.01;101792.69;6305414;22;20003;-57
2022/09/19 03:23:58;;;;;;;7.68;2.38;;;;;;;10.52;70.02;101795.28;6306306;22;19999;-57
2022/09/19 03:26:28;;;;;;;7.75;1.83;;;;;;;10.51;69.91;101798.31;6306889;22;20010;-57
2022/09/19 03:28:54;;;;;;;10.55;2.28;;;;;;;10.47;70.17;101797.91;6306036;22;20003;-57
2022/09/19 03:31:20;;;;;;;10.50;2.10;;;;;;;10.47;70.46;101803.47;6305741;22;20009;-57
2022/09/19 03:33:46;;;;;;;8.80;2.38;;;;;;;10.46;70.62;101803.72;6305534;22;20445;-57
2022/09/19 03:36:11;;;;;;;11.80;2.08;;;;;;;10.46;70.67;101795.38;6306082;22;20003;-58
2022/09/19 03:38:44;;;;;;;7.53;2.00;;;;;;;10.45;70.89;101805.63;6306176;22;20015;-58
2022/09/19 03:41:10;;;;;;;;;;;;;;;10.70;70.27;101810.28;6306818;22;20000;-58
2022/09/19 03:43:35;;;;;;;8.50;1.95;;;;;;;10.52;71.01;101803.63;6304286;22;19910;-58
2022/09/19 03:46:00;;;;;;;5.30;1.65;;;;;;;10.53;71.09;101796.13;6305291;22;20017;-57
2022/09/19 03:48:26;;;;;;;11.52;1.95;;;;;;;10.56;71.23;101795.69;6304835;22;20014;-57
2022/09/19 03:50:52;;;;;;;8.43;1.88;;;;;;;10.55;71.30;101799.53;6304956;22;20502;-58
2022/09/19 03:53:19;;;;;;;8.20;2.20;;;;;;;10.55;71.31;101800.38;6306332;22;20003;-58
2022/09/19 03:55:45;;;;;;;11.60;2.53;;;;;;;10.53;71.31;101804.47;6306143;22;20003;-58
2022/09/19 03:58:11;;;;;;;9.90;1.98;;;;;;;10.54;71.59;101798.69;6304947;22;20068;-58
2022/09/19 04:00:37;;;;;;;9.63;2.03;;;;;;;10.55;71.54;101803.16;6305274;22;20014;-58
2022/09/19 04:03:02;;;;;;;8.65;2.15;;;;;;;10.53;71.74;101797.00;6305300;22;20388;-58
2022/09/19 04:05:28;;;;;;;7.28;2.00;;;;;;;10.56;71.59;101802.06;6304667;22;20082;-58
2022/09/19 04:07:54;;;;;;;8.05;1.63;;;;;;;10.57;71.72;101805.69;6304890;22;20400;-58
2022/09/19 04:10:20;;;;;;;8.95;2.15;;;;;;;10.54;71.70;101807.03;6306018;22;20000;-58
2022/09/19 04:12:48;;;;;;;6.18;1.63;;;;;;;10.53;71.86;101818.34;6305374;22;20491;-58
2022/09/19 04:15:14;;;;;;;9.10;1.70;;;;;;;10.53;71.61;101819.22;6306014;22;20006;-58
2022/09/19 04:17:39;;;;;;;8.98;2.40;;;;;;;10.53;71.61;101819.22;6304595;22;19999;-58
2022/09/19 04:20:04;;;;;;;10.27;1.83;;;;;;;10.50;71.51;101816.91;6305152;22;20416;-58
2022/09/19 04:22:30;;;;;;;7.22;1.95;;;;;;;10.52;71.79;101823.06;6305312;22;20074;-58
2022/09/19 04:24:55;;;;;;;10.20;2.10;;;;;;;10.54;71.79;101826.47;6305164;22;20327;-58
2022/09/19 04:27:20;;;;;;;10.85;2.25;;;;;;;10.51;71.77;101829.69;6305319;22;20010;-58
2022/09/19 04:29:45;;;;;;;8.75;2.40;;;;;;;10.51;71.70;101829.69;6304791;22;20057;-58
2022/09/19 04:32:12;;;;;;;7.13;1.77;;;;;;;10.52;71.82;101831.38;6304179;22;20011;-58
2022/09/19 04:34:37;;;;;;;8.38;2.05;;;;;;;10.51;72.19;101826.91;6306089;22;20025;-59
2022/09/19 04:37:06;;;;;;;12.20;3.03;;;;;;;10.55;72.45;101833.72;6304696;22;20467;-58
2022/09/19 04:39:31;;;;;;;9.57;1.92;;;;;;;10.54;72.22;101834.78;6304037;22;20042;-58
2022/09/19 04:41:58;;;;;;;14.45;3.17;;;;;;;10.54;71.58;101839.50;6305801;22;19999;-58
2022/09/19 04:44:28;;;;;;;8.25;1.77;;;;;;;10.56;72.26;101840.09;6305411;22;20091;-58
2022/09/19 04:46:54;;;;;;;13.80;2.20;;;;;;;10.56;72.42;101835.41;6304995;22;20003;-58
2022/09/19 04:49:19;;;;;;;11.93;2.05;;;;;;;10.57;72.38;101831.56;6305779;22;20007;-57
2022/09/19 04:51:45;;;;;;;9.35;1.88;;;;;;;10.55;72.47;101838.41;6304232;22;20113;-58
2022/09/19 04:54:14;;;;;;;5.88;1.88;;;;;;;10.56;72.20;101835.41;6304930;22;20086;-58
2022/09/19 04:56:39;;;;;;;10.68;2.17;;;;;;;10.54;72.33;101843.13;6304959;22;20072;-57
2022/09/19 04:59:05;;;;;;;11.50;2.17;;;;;;;10.54;72.47;101845.91;6305115;22;20412;-58
2022/09/19 05:01:30;;;;;;;11.20;2.13;;;;;;;10.58;72.32;101854.63;6301854;22;20000;-57
2022/09/19 05:03:56;;;;;;;10.00;2.03;;;;;;;10.58;72.65;101843.50;6304678;22;20007;-57
2022/09/19 05:06:23;;;;;;;11.50;2.42;;;;;;;10.56;72.82;101840.94;6305151;22;20129;-57
2022/09/19 05:08:50;;;;;;;9.07;2.15;;;;;;;10.57;72.93;101848.22;6304301;22;20007;-57
2022/09/19 05:11:18;;;;;;;6.65;1.95;;;;;;;10.59;73.07;101856.31;6305007;22;20025;-57
2022/09/19 05:13:44;;;;;;;11.38;2.55;;;;;;;10.56;73.33;101849.28;6304855;22;20094;-57
2022/09/19 05:16:13;;;;;;;8.98;2.50;;;;;;;10.58;73.23;101854.63;6304945;22;20045;-57
2022/09/19 05:18:38;;;;;;;8.95;2.38;;;;;;;10.62;73.08;101855.00;6305551;22;20039;-57
2022/09/19 05:21:07;;;;;;;11.82;3.53;;;;;;;10.63;73.49;101856.69;6304849;22;20323;-58
2022/09/19 05:23:35;;;;;;;9.52;2.70;;;;;;;10.65;73.52;101865.63;6305928;22;20064;-57
2022/09/19 05:26:09;;;;;;;9.65;2.40;;;;;;;10.63;73.81;101874.22;6306438;22;20407;-58
2022/09/19 05:28:36;;;;;;;12.25;2.22;;;;;;;10.68;73.78;101867.97;6305548;22;20077;-57
2022/09/19 05:31:05;;;;;;;14.23;2.33;;;;;;;10.70;73.46;101871.38;6305748;22;20011;-57
2022/09/19 05:33:32;;;;;;;11.55;2.70;;;;;;;10.70;74.00;101869.44;6305769;22;20018;-57
2022/09/19 05:36:00;;;;;;;8.32;2.05;;;;;;;10.72;73.54;101869.19;6304911;22;20034;-58
2022/09/19 05:38:26;;;;;;;8.95;2.85;;;;;;;10.72;73.60;101871.97;6304615;22;20014;-58
2022/09/19 05:40:56;;;;;;;10.27;2.53;;;;;;;10.71;74.13;101875.84;6305082;22;20011;-58
2022/09/19 05:43:22;;;;;;;11.07;2.58;;;;;;;10.75;73.71;101872.38;6304285;22;20015;-58
2022/09/19 05:45:50;;;;;;;14.48;2.88;;;;;;;10.74;73.54;101870.69;6305479;22;20010;-58
2022/09/19 05:48:15;;;;;;;11.25;3.10;;;;;;;10.74;73.92;101865.13;6307795;22;20049;-58
2022/09/19 05:50:44;;;;;;;13.60;2.60;;;;;;;10.78;73.74;101876.63;6306148;22;20003;-58
2022/09/19 05:55:55;;;;;;;13.02;2.90;;;;;;;10.77;73.47;101886.03;6306178;22;20022;-58
2022/09/19 05:58:20;;;;;;;10.43;2.20;;;;;;;10.79;73.61;101887.50;6307315;22;20170;-58
2022/09/19 06:00:46;;;;;;;11.73;3.00;;;;;;;10.77;73.60;101886.88;6305811;22;20492;-58
2022/09/19 06:03:15;;;;;;;12.95;2.47;;;;;;;10.77;73.39;101883.28;6305413;22;20010;-58
2022/09/19 06:05:43;;;;;;;13.13;2.55;;;;;;;10.80;73.45;101891.97;6306654;22;20393;-58
2022/09/19 06:08:09;;;;;;;13.38;2.70;;;;;;;10.82;73.74;101880.63;6305584;22;20335;-58
2022/09/19 06:10:40;;;;;;;9.07;2.10;;;;;;;10.87;73.72;101886.34;6306238;22;20450;-58
2022/09/19 06:13:06;;;;;;;14.68;2.78;;;;;;;10.89;73.49;101888.91;6306971;22;19999;-58
2022/09/19 06:15:33;;;;;;;13.90;2.95;;;;;;;10.93;73.71;101898.47;6306414;22;20313;-59
2022/09/19 06:17:59;;;;;;;15.27;2.40;;;;;;;10.98;73.79;101893.91;6305873;22;20475;-59
2022/09/19 06:20:24;;;;;;;9.63;2.47;;;;;;;10.99;74.05;101894.75;6307431;22;20027;-59
2022/09/19 06:22:56;;;;;;;9.48;2.55;;;;;;;11.03;74.19;101894.06;6306033;22;20342;-59
2022/09/19 06:25:21;;;;;;;9.82;2.65;;;;;;;11.07;74.38;101895.31;6306059;22;20011;-58
2022/09/19 06:27:54;;;;;;;14.57;2.65;;;;;;;11.15;74.34;101901.63;6306406;22;20084;-59
2022/09/19 06:30:19;;;;;;;11.70;2.30;;;;;;;11.15;74.52;101899.72;6306631;22;19999;-59
2022/09/19 06:32:44;;;;;;;12.40;2.40;;;;;;;11.20;74.36;101907.34;6305537;22;20431;-58
2022/09/19 06:35:09;;;;;;;9.73;2.80;;;;;;;11.22;74.54;101906.03;6306291;22;20010;-59
2022/09/19 06:37:35;;;;;;;12.07;3.15;;;;;;;11.24;74.99;101903.91;6302986;22;20327;-58
2022/09/19 06:40:00;;;;;;;10.82;2.33;;;;;;;11.25;74.91;101915.84;6304912;22;20011;-58
2022/09/19 06:42:26;;;;;;;11.23;2.08;;;;;;;11.29;74.95;101922.66;6306107;22;20027;-59
2022/09/19 06:44:52;;;;;;;10.05;2.40;;;;;;;11.33;74.36;101914.69;6305767;22;20015;-58
2022/09/19 06:47:17;;;;;;;9.23;2.53;;;;;;;11.34;74.20;101916.38;6305387;22;20022;-59
2022/09/19 06:49:43;;;;;;;13.85;2.78;;;;;;;11.35;74.87;101920.84;6302128;22;20007;-59
2022/09/19 06:52:08;;;;;;;10.38;2.20;;;;;;;11.38;74.81;101921.25;6302481;22;20007;-59
2022/09/19 06:54:33;;;;;;;11.20;2.70;;;;;;;11.41;75.21;101923.56;6303617;22;20415;-59
2022/09/19 06:57:00;;;;;;;11.57;3.08;;;;;;;11.42;74.70;101921.63;6303693;22;20003;-59
2022/09/19 06:59:25;;;;;;;12.90;2.88;;;;;;;11.47;74.58;101930.97;6300790;22;20093;-59
2022/09/19 07:01:50;;;;;;;12.38;2.80;;;;;;;11.48;74.44;101932.69;6301249;22;20105;-58
2022/09/19 07:04:16;;;;;;;8.55;2.55;;;;;;;11.53;74.44;101934.75;6302881;22;20006;-59
2022/09/19 07:06:41;;;;;;;14.63;3.33;;;;;;;11.58;74.79;101934.06;6299989;22;20469;-58
2022/09/19 07:09:07;;;;;;;12.43;2.70;;;;;;;11.65;74.63;101943.16;6300997;22;20336;-59
2022/09/19 07:11:33;;;;;;;11.32;2.67;;;;;;;11.66;74.57;101942.91;6304341;22;20083;-59
2022/09/19 07:13:58;;;;;;;13.13;2.10;;;;;;;11.69;74.40;101944.38;6304461;22;20006;-60
2022/09/19 07:16:24;;;;;;;11.18;2.47;;;;;;;11.73;74.58;101948.41;6302864;22;20011;-59
2022/09/19 07:18:49;;;;;;;9.43;2.33;;;;;;;11.77;74.55;101957.97;6302899;22;20056;-59
2022/09/19 07:21:15;;;;;;;10.27;2.63;;;;;;;11.82;75.33;101958.13;6297407;22;20007;-59
2022/09/19 07:23:40;;;;;;;12.20;2.65;;;;;;;11.83;74.74;101959.88;6306217;22;20003;-58
2022/09/19 07:26:06;;;;;;;11.20;2.25;;;;;;;11.86;75.02;101964.09;6306669;22;20346;-59
2022/09/19 07:28:31;;;;;;;11.77;2.22;;;;;;;11.88;74.95;101965.56;6305370;22;20014;-59
2022/09/19 07:30:58;;;;;;;7.15;1.88;;;;;;;11.92;74.76;101971.50;6306362;22;20003;-59
2022/09/19 07:33:28;;;;;;;9.75;2.28;;;;;;;11.93;75.03;101973.19;6303609;22;20068;-60
2022/09/19 07:35:54;;;;;;;10.38;2.30;;;;;;;11.90;75.07;101977.28;6304692;22;20007;-59
2022/09/19 07:38:22;;;;;;;9.15;2.30;;;;;;;11.95;75.05;101977.47;6305903;22;20011;-60
2022/09/19 07:40:47;;;;;;;9.27;2.53;;;;;;;12.00;75.46;101979.53;6305993;22;20284;-58
2022/09/19 07:43:14;;;;;;;10.88;2.03;;;;;;;12.01;75.21;101978.44;6273631;22;20089;-58
2022/09/19 07:45:47;;;;;;;16.13;2.33;;;;;;;12.05;75.58;101985.22;6275118;22;20074;-58
2022/09/19 07:48:14;;;;;;;7.35;2.13;;;;;;;12.07;75.61;101980.28;6274124;22;20035;-58
2022/09/19 07:50:40;;;;;;;9.38;2.55;;;;;;;12.09;75.00;101980.03;6273268;22;20328;-58
2022/09/19 07:53:09;;;;;;;11.25;2.40;;;;;;;12.11;75.67;101986.25;6275468;22;20004;-59
2022/09/19 07:55:35;;;;;;;12.93;2.40;;;;;;;12.14;75.55;101982.97;6274074;22;20091;-58
2022/09/19 07:58:03;;;;;;;9.35;2.10;;;;;;;12.16;75.09;101983.59;6274841;22;20010;-59
2022/09/19 08:00:29;;;;;;;12.90;2.40;;;;;;;12.18;74.99;101986.97;6274839;22;20009;-59
2022/09/19 08:02:59;;;;;;;7.45;1.90;;;;;;;12.18;75.12;101992.53;6274287;22;20016;-58
2022/09/19 08:05:26;;;;;;;13.48;2.42;;;;;;;12.19;75.02;101992.31;6271306;22;20471;-58
2022/09/19 08:07:51;;;;;;;10.80;2.83;;;;;;;12.21;75.60;101987.34;6273408;22;20011;-58
2022/09/19 08:10:17;;;;;;;8.55;2.38;;;;;;;12.24;75.63;101999.97;6273373;22;20000;-58
2022/09/19 08:12:44;;;;;;;10.75;2.20;;;;;;;12.25;75.28;101998.84;6273486;22;20319;-58
2022/09/19 08:15:15;;;;;;;8.60;2.35;;;;;;;12.25;74.92;101994.13;6273844;22;19996;-59
2022/09/19 08:17:42;;;;;;;13.18;2.53;;;;;;;12.30;75.15;102001.81;6273668;22;20007;-58
2022/09/19 08:20:07;;;;;;;10.95;2.40;;;;;;;12.35;75.76;102003.88;6273974;22;20329;-58
2022/09/19 08:22:34;;;;;;;13.30;2.28;;;;;;;12.42;75.50;102008.25;6273789;22;20004;-58
2022/09/19 08:25:00;;;;;;;15.23;2.30;;;;;;;12.47;75.12;102008.38;6272204;22;20313;-58
2022/09/19 08:27:25;;;;;;;10.00;2.50;;;;;;;12.56;75.46;102008.03;6272787;22;20015;-59
2022/09/19 08:29:50;;;;;;;12.82;2.30;;;;;;;12.65;75.15;102014.97;6272706;22;19995;-60
2022/09/19 08:32:16;;;;;;;10.20;2.63;;;;;;;12.79;75.11;102019.25;6272798;22;20082;-59
2022/09/19 08:34:41;;;;;;;12.63;2.42;;;;;;;13.07;75.25;102023.28;6274466;22;20328;-59
2022/09/19 08:37:06;;;;;;;12.55;2.47;;;;;;;13.35;75.93;102020.63;6272912;22;20129;-59
2022/09/19 08:39:32;;;;;;;8.73;2.08;;;;;;;13.58;74.58;102016.97;6272497;22;20011;-60
2022/09/19 08:42:27;;;;;;;6.90;1.98;;;;;;;13.81;74.00;102018.03;6273496;22;20014;-60
2022/09/19 08:45:33;;;;;;;8.93;2.20;;;;;;;14.06;73.20;102026.91;6272959;22;20412;-59
2022/09/19 08:48:05;;;;;;;9.90;2.25;;;;;;;14.09;71.20;102022.78;6212236;22;20442;-59
2022/09/19 08:50:34;;;;;;;11.35;2.35;;;;;;;14.16;70.74;102029.09;6271740;22;20427;-58
2022/09/19 08:53:04;;;;;;;6.95;2.05;;;;;;;14.07;69.47;102028.63;6271107;22;20023;-58
2022/09/19 08:55:33;;;;;;;9.45;2.03;;;;;;;14.16;69.55;102027.13;6271782;22;20079;-58
2022/09/19 08:58:05;;;;;;;9.73;2.03;;;;;;;14.25;70.04;102017.25;6273884;22;20010;-58
2022/09/19 09:00:38;;;;;;;;;;;;;;;14.41;71.45;102028.72;6271088;22;20003;-58
2022/09/19 09:03:51;;;;;;;12.70;2.35;;;;;;;14.65;70.36;102023.91;6272494;22;20045;-58
2022/09/19 09:06:26;;;;;;;;;;;;;;;14.79;70.72;102018.84;6237398;22;20012;-58
2022/09/19 09:09:06;;;;;;;8.70;1.70;;;;;;;15.05;69.12;102020.09;6273077;22;19946;-58
2022/09/19 09:11:54;;;;;;;8.07;1.88;;;;;;;15.19;67.85;102022.31;6271640;22;20004;-58
2022/09/19 09:14:46;;;;;;;15.27;2.63;;;;;;;15.33;65.91;102022.81;6270010;22;20049;-58
2022/09/19 09:17:27;;;;;;;16.23;5.00;;;;;;;15.44;66.19;102012.59;6272471;22;20050;-58
2022/09/19 09:20:04;;;;;;;9.15;1.80;;;;;;;15.55;65.13;102013.59;6270555;22;20008;-59
2022/09/19 09:22:39;;;;;;;8.27;1.48;;;;;;;15.70;65.22;102019.44;6270933;22;20031;-59
2022/09/19 09:25:16;;;;;;;9.60;1.98;;;;;;;15.78;64.98;102010.59;6273137;22;20108;-60
2022/09/19 09:28:04;;;;;;;11.30;2.05;;;;;;;15.91;65.88;102015.78;6271243;22;20003;-60
2022/09/19 09:30:31;;;;;;;9.25;1.70;;;;;;;16.06;64.87;102003.94;6271464;22;20019;-59
2022/09/19 09:33:10;;;;;;;11.07;2.20;;;;;;;16.16;64.95;102012.47;6273003;22;20043;-59
2022/09/19 09:35:44;;;;;;;9.93;1.63;;;;;;;16.27;63.58;102005.03;6272585;22;20050;-58
2022/09/19 09:38:33;;;;;;;12.85;1.80;;;;;;;16.27;63.43;102007.84;6273490;22;20004;-60
2022/09/19 09:44:07;;;;;;;7.90;1.50;;;;;;;16.49;62.91;102020.94;6272221;22;20058;-60
2022/09/19 09:46:50;;;;;;;8.35;1.65;;;;;;;16.54;63.04;102006.97;6271911;22;20003;-61
2022/09/19 09:49:17;;;;;;;13.20;1.60;;;;;;;16.49;61.11;102009.72;6272628;22;20060;-60
2022/09/19 09:52:17;;;;;;;9.73;1.58;;;;;;;16.61;62.76;102018.81;6272422;22;19999;-60
2022/09/19 09:58:32;;;;;;;8.38;1.75;;;;;;;16.83;60.65;102015.97;6220101;22;20023;-60
2022/09/19 10:04:21;;;;;;;11.70;1.85;;;;;;;16.88;60.77;102016.03;6272550;22;20080;-60
2022/09/19 10:07:10;;;;;;;7.53;1.85;;;;;;;16.87;61.24;102015.19;6272243;22;20004;-61
2022/09/19 10:09:40;;;;;;;10.25;1.50;;;;;;;16.59;59.35;102016.28;6267786;22;20057;-61
2022/09/19 10:12:17;;;;;;;7.32;1.73;;;;;;;16.40;60.68;102015.81;6271291;22;20016;-60
2022/09/19 10:14:46;;;;;;;7.00;1.77;;;;;;;16.21;58.78;102022.88;6267113;22;20324;-59
2022/09/19 10:17:15;;;;;;;6.32;1.38;;;;;;;16.11;58.49;102014.34;6270722;22;20355;-58
2022/09/19 10:19:51;;;;;;;9.82;1.35;;;;;;;16.06;58.83;102019.91;6271298;22;20011;-60
2022/09/19 10:22:17;;;;;;;9.00;1.40;;;;;;;16.13;58.87;102023.34;6272133;22;20000;-58
2022/09/19 10:24:55;;;;;;;4.97;1.13;;;;;;;16.12;59.83;102013.25;6271131;22;20090;-59
2022/09/19 10:27:33;;;;;;;7.53;1.40;;;;;;;16.13;57.98;102026.16;6272073;22;20003;-60
2022/09/19 10:30:11;;;;;;;7.07;1.55;;;;;;;16.04;58.01;102019.31;6270908;22;20034;-59
2022/09/19 10:32:37;;;;;;;9.13;1.90;;;;;;;15.97;58.53;102027.06;6272660;22;20377;-59
2022/09/19 10:35:26;;;;;;;4.85;1.35;;;;;;;15.88;59.58;102018.28;6274647;22;20082;-59
2022/09/19 10:38:04;;;;;;;11.82;1.52;;;;;;;15.78;59.56;102024.59;6270360;22;20018;-59
2022/09/19 10:40:31;;;;;;;9.02;1.48;;;;;;;15.78;60.03;102032.97;6267354;22;20008;-60
2022/09/19 10:42:59;;;;;;;11.70;1.73;;;;;;;15.79;60.90;102034.66;6271619;22;19996;-59
2022/09/19 10:45:27;;;;;;;6.75;1.98;;;;;;;15.72;61.48;102036.84;6268914;22;19999;-61
2022/09/19 10:48:00;;;;;;;5.55;1.10;;;;;;;15.71;61.23;102029.53;6271003;22;20004;-60
2022/09/19 10:50:26;;;;;;;8.00;1.52;;;;;;;15.71;59.72;102026.72;6270579;22;20049;-59
2022/09/19 10:53:03;;;;;;;8.98;1.75;;;;;;;15.60;59.85;102016.44;6272303;22;20009;-59
2022/09/19 10:55:33;;;;;;;10.00;1.85;;;;;;;15.54;60.54;102021.16;6273531;22;20015;-57
2022/09/19 10:58:05;;;;;;;8.40;1.45;;;;;;;15.56;60.21;102016.16;6274636;22;20010;-59
2022/09/19 11:00:32;;;;;;;8.68;1.80;;;;;;;15.61;60.98;102020.97;6271534;22;20039;-57
2022/09/19 11:03:05;;;;;;;9.65;1.58;;;;;;;15.82;60.06;102020.16;6274057;22;20000;-59
2022/09/19 11:05:32;;;;;;;10.10;1.30;;;;;;;16.02;58.77;102015.94;6272363;22;20348;-59
2022/09/19 11:07:59;;;;;;;5.05;1.88;;;;;;;16.08;57.37;102015.72;6273034;22;20032;-59
2022/09/19 11:10:39;;;;;;;8.60;1.40;;;;;;;16.19;57.45;102025.97;6273050;22;20000;-58
2022/09/19 11:13:22;;;;;;;7.20;1.73;;;;;;;16.19;57.42;102023.16;6273737;22;20049;-58
2022/09/19 11:16:00;;;;;;;8.10;1.25;;;;;;;16.12;56.58;102024.47;6272274;22;20078;-57
2022/09/19 11:18:49;;;;;;;8.23;1.85;;;;;;;16.07;58.03;102024.38;6273738;22;20011;-58
2022/09/19 11:21:25;;;;;;;8.50;1.83;;;;;;;16.03;58.37;102012.00;6272825;22;20008;-58
2022/09/19 11:23:58;;;;;;;7.82;1.90;;;;;;;16.06;57.92;102011.50;6272396;22;20010;-59
2022/09/19 11:26:26;;;;;;;5.55;1.50;;;;;;;16.01;57.38;102014.25;6271343;22;20011;-59
2022/09/19 11:29:02;;;;;;;10.32;1.58;;;;;;;16.02;58.20;102019.56;6274032;22;20027;-59
2022/09/19 11:32:03;;;;;;;6.10;1.45;;;;;;;16.05;58.25;102012.59;6271607;22;20018;-59
2022/09/19 11:34:48;;;;;;;4.82;1.27;;;;;;;16.05;58.05;102018.22;6272672;22;20027;-58
2022/09/19 11:37:29;;;;;;;10.52;1.73;;;;;;;15.99;58.94;102027.63;6273529;22;20408;-59
2022/09/19 11:40:30;;;;;;;8.10;1.73;;;;;;;15.91;61.17;102026.97;6272769;22;20008;-59
2022/09/19 11:43:32;;;;;;;6.00;1.42;;;;;;;15.84;62.06;102020.75;6272814;22;20004;-59
2022/09/19 11:46:20;;;;;;;7.95;1.55;;;;;;;15.76;62.16;102029.63;6273750;22;20436;-58
2022/09/19 11:48:54;;;;;;;8.52;1.55;;;;;;;15.68;62.57;102027.25;6272217;22;20099;-57
2022/09/19 11:51:52;;;;;;;5.70;1.65;;;;;;;15.69;62.42;102024.19;6273441;22;20011;-58
2022/09/19 11:54:23;;;;;;;9.40;1.50;;;;;;;15.69;62.84;102015.78;6273582;22;20011;-58
2022/09/19 11:56:55;;;;;;;7.40;1.60;;;;;;;15.77;63.25;102020.09;6272538;22;20298;-58
2022/09/19 11:59:45;;;;;;;5.70;1.30;;;;;;;15.81;62.97;102015.69;6273682;22;20008;-58